Time;durP1;ratioP1;P1;durP2;ratioP2;P2;SDS_P1;SDS_P2;PMS_P1;PMS_P2;Temp;Humidity;BMP_temperature;BMP_pressure;BME280_temperature;BME280_humidity;BME280_pressure;Samples;Min_cycle;Max_cycle;Signal;HPM_P1;HPM_P2
2022/01/04 05:01:31;;;;;;;18.00;10.50;;;8.00;99.90;;;;;;5429977;23;20722;-68
2022/01/04 05:03:57;;;;;;;17.88;13.15;;;8.00;99.90;;;;;;4939590;29;20213;-69
2022/01/04 05:06:25;;;;;;;23.52;11.45;;;8.00;99.90;;;;;;4943947;29;20229;-67
2022/01/04 05:08:52;;;;;;;15.93;11.10;;;8.00;99.90;;;;;;4943732;29;20198;-68
2022/01/04 05:11:19;;;;;;;17.50;10.80;;;8.00;99.90;;;;;;4929957;29;20644;-68
2022/01/04 05:13:46;;;;;;;20.17;11.88;;;8.00;99.90;;;;;;4925747;29;20250;-68
2022/01/04 05:16:13;;;;;;;19.48;10.85;;;8.00;99.90;;;;;;4937581;23;20655;-67
2022/01/04 05:18:41;;;;;;;25.92;13.00;;;8.00;99.90;;;;;;4936085;29;20217;-69
2022/01/04 05:21:08;;;;;;;17.92;12.13;;;8.10;99.90;;;;;;4917845;29;20207;-70
2022/01/04 05:23:34;;;;;;;19.70;11.90;;;8.10;99.90;;;;;;4916187;29;20311;-68
2022/01/04 05:26:01;;;;;;;19.48;12.20;;;8.10;99.90;;;;;;4932090;29;20237;-68
2022/01/04 05:28:28;;;;;;;21.98;12.20;;;8.00;99.90;;;;;;4930480;29;20261;-68
2022/01/04 05:30:54;;;;;;;16.83;12.25;;;8.00;99.90;;;;;;4924158;29;20209;-69
2022/01/04 05:33:21;;;;;;;18.13;12.85;;;8.00;99.90;;;;;;4899501;29;20215;-69
2022/01/04 05:35:49;;;;;;;17.50;12.38;;;8.00;99.90;;;;;;4911583;29;20294;-70
2022/01/04 05:38:16;;;;;;;14.30;11.07;;;8.10;99.90;;;;;;4905427;29;20294;-68
2022/01/04 05:40:43;;;;;;;22.15;11.65;;;8.00;99.90;;;;;;4907065;29;20211;-69
2022/01/04 05:43:10;;;;;;;24.50;14.43;;;8.00;99.90;;;;;;4908017;29;20293;-68
2022/01/04 05:45:37;;;;;;;20.75;12.80;;;8.00;99.90;;;;;;4916925;29;20227;-69
2022/01/04 05:48:04;;;;;;;19.20;12.18;;;8.00;99.90;;;;;;4897676;29;20231;-68
2022/01/04 05:50:31;;;;;;;25.02;13.32;;;8.00;99.90;;;;;;4897472;29;20684;-73
2022/01/04 05:52:59;;;;;;;20.50;12.90;;;8.00;99.90;;;;;;4906021;29;20234;-66
2022/01/04 05:55:26;;;;;;;17.50;11.63;;;8.00;99.90;;;;;;4935140;29;20202;-67
2022/01/04 05:57:53;;;;;;;19.48;12.35;;;8.00;99.90;;;;;;4913553;29;20637;-68
2022/01/04 06:00:19;;;;;;;18.85;12.63;;;8.00;99.90;;;;;;4913163;29;20316;-68
2022/01/04 06:02:46;;;;;;;20.60;13.60;;;8.00;99.90;;;;;;4913262;29;20255;-67
2022/01/04 06:05:13;;;;;;;26.80;12.88;;;7.90;99.90;;;;;;4913650;29;20215;-69
2022/01/04 06:07:39;;;;;;;31.17;14.23;;;7.90;99.90;;;;;;4912169;29;20681;-67
2022/01/04 06:10:09;;;;;;;21.45;14.00;;;7.90;99.90;;;;;;4912136;29;20207;-67
2022/01/04 06:15:18;;;;;;;22.20;13.20;;;8.00;99.90;;;;;;4894778;29;20273;-67
2022/01/04 06:17:47;;;;;;;23.55;14.48;;;8.00;99.90;;;;;;4930082;29;21037;-67
2022/01/04 06:20:16;;;;;;;20.13;13.15;;;8.00;99.90;;;;;;4906502;29;20207;-67
2022/01/04 06:22:43;;;;;;;22.08;13.48;;;7.90;99.90;;;;;;4898535;29;20202;-68
2022/01/04 06:25:14;;;;;;;19.65;14.02;;;7.90;99.90;;;;;;4927890;29;20292;-69
2022/01/04 06:27:42;;;;;;;22.70;13.50;;;7.90;99.90;;;;;;4914226;29;20281;-68
2022/01/04 06:30:10;;;;;;;21.75;13.70;;;7.90;99.90;;;;;;4907621;29;20269;-68
2022/01/04 06:32:37;;;;;;;22.45;13.50;;;7.90;99.90;;;;;;4901042;29;20207;-70
2022/01/04 06:35:04;;;;;;;20.85;14.73;;;7.90;99.90;;;;;;4925940;29;20298;-71
2022/01/04 06:37:32;;;;;;;22.75;14.07;;;7.90;99.90;;;;;;4910958;29;20274;-68
2022/01/04 06:39:59;;;;;;;21.45;14.63;;;7.90;99.90;;;;;;4910676;29;20312;-68
2022/01/04 06:42:27;;;;;;;28.05;16.30;;;7.90;99.90;;;;;;4934531;29;20217;-71
2022/01/04 06:44:54;;;;;;;30.20;13.55;;;7.90;99.90;;;;;;4929815;29;20218;-68
2022/01/04 06:47:20;;;;;;;22.90;14.98;;;7.90;99.90;;;;;;4914631;29;20249;-68
2022/01/04 06:49:47;;;;;;;30.55;13.80;;;7.90;99.90;;;;;;4904022;29;20219;-69
2022/01/04 06:52:14;;;;;;;24.33;14.57;;;7.90;99.90;;;;;;4912873;29;20210;-67
2022/01/04 06:54:40;;;;;;;22.85;14.27;;;7.90;99.90;;;;;;4915466;29;20218;-68
2022/01/04 06:57:07;;;;;;;23.08;13.57;;;7.90;99.90;;;;;;4918542;29;20218;-67
2022/01/04 06:59:35;;;;;;;22.25;13.60;;;7.90;99.90;;;;;;4915312;29;20278;-68
2022/01/04 07:02:02;;;;;;;24.52;14.38;;;7.90;99.90;;;;;;4914808;29;20211;-67
2022/01/04 07:04:28;;;;;;;25.00;14.43;;;7.90;99.90;;;;;;4914653;29;20207;-68
2022/01/04 07:06:55;;;;;;;22.15;14.50;;;7.90;99.90;;;;;;4912511;29;20229;-67
2022/01/04 07:09:22;;;;;;;21.65;14.45;;;7.90;99.90;;;;;;4914995;29;20218;-68
2022/01/04 07:11:51;;;;;;;21.27;13.90;;;7.90;99.90;;;;;;4921483;29;20207;-69
2022/01/04 07:14:18;;;;;;;22.30;14.48;;;7.90;99.90;;;;;;4925733;29;20210;-67
2022/01/04 07:16:46;;;;;;;26.95;14.20;;;7.90;99.90;;;;;;4921264;29;20241;-68
2022/01/04 07:19:12;;;;;;;23.02;13.90;;;7.90;99.90;;;;;;4934147;29;20214;-67
2022/01/04 07:21:39;;;;;;;24.75;16.10;;;7.90;99.90;;;;;;4918401;29;20206;-69
2022/01/04 07:24:06;;;;;;;28.50;16.42;;;7.90;99.90;;;;;;4917116;29;20266;-67
2022/01/04 07:26:33;;;;;;;22.20;14.85;;;7.90;99.90;;;;;;4926082;29;20321;-70
2022/01/04 07:28:59;;;;;;;24.83;15.25;;;7.90;99.90;;;;;;4914984;29;20630;-70
2022/01/04 07:31:26;;;;;;;29.08;17.05;;;7.90;99.90;;;;;;4920901;29;20202;-67
2022/01/04 07:33:54;;;;;;;27.65;15.85;;;7.90;99.90;;;;;;4933961;29;20210;-67
2022/01/04 07:36:21;;;;;;;26.15;14.68;;;7.90;99.90;;;;;;4933712;29;20594;-68
2022/01/04 07:38:48;;;;;;;29.98;17.00;;;7.90;99.90;;;;;;4904544;29;20199;-67
2022/01/04 07:41:15;;;;;;;31.33;18.00;;;7.90;99.90;;;;;;4922433;29;20214;-68
2022/01/04 07:43:41;;;;;;;30.38;17.52;;;8.00;99.90;;;;;;4916120;29;20648;-70
2022/01/04 07:46:08;;;;;;;28.80;17.67;;;8.00;99.90;;;;;;4905653;29;20234;-68
2022/01/04 07:48:35;;;;;;;24.65;16.13;;;8.00;99.90;;;;;;4914899;29;20230;-69
2022/01/04 07:51:03;;;;;;;28.65;15.90;;;8.00;99.90;;;;;;4906918;29;20207;-71
2022/01/04 07:53:30;;;;;;;29.35;16.55;;;8.00;99.90;;;;;;4922986;29;20206;-70
2022/01/04 07:55:57;;;;;;;26.58;17.73;;;8.00;99.90;;;;;;4933548;29;20269;-69
2022/01/04 07:58:25;;;;;;;27.25;16.77;;;8.00;99.90;;;;;;4922405;29;20253;-70
2022/01/04 08:00:52;;;;;;;26.83;16.95;;;8.00;99.90;;;;;;4913421;29;20210;-71
2022/01/04 08:03:19;;;;;;;26.33;16.02;;;8.00;99.90;;;;;;4912915;29;20210;-69
2022/01/04 08:05:46;;;;;;;26.70;17.95;;;8.00;99.90;;;;;;4918003;29;20286;-68
2022/01/04 08:08:14;;;;;;;29.10;17.67;;;8.00;99.90;;;;;;4913544;29;20222;-70
2022/01/04 08:10:40;;;;;;;28.08;17.88;;;8.00;99.90;;;;;;4921202;29;20216;-68
2022/01/04 08:13:07;;;;;;;25.08;16.92;;;8.00;99.90;;;;;;4918446;29;20209;-68
2022/01/04 08:15:34;;;;;;;32.15;17.17;;;8.00;99.90;;;;;;4912259;29;20834;-68
2022/01/04 08:18:00;;;;;;;32.60;18.23;;;8.00;99.90;;;;;;4909352;29;20203;-69
2022/01/04 08:20:27;;;;;;;29.35;19.00;;;8.00;99.90;;;;;;4914274;29;20207;-69
2022/01/04 08:22:54;;;;;;;26.10;17.60;;;8.00;99.90;;;;;;4917078;29;20207;-68
2022/01/04 08:25:22;;;;;;;27.27;18.15;;;8.00;99.90;;;;;;4912801;29;20212;-68
2022/01/04 08:27:49;;;;;;;26.85;17.60;;;8.00;99.90;;;;;;4932645;29;20704;-69
2022/01/04 08:30:16;;;;;;;28.00;16.42;;;8.00;99.90;;;;;;4912997;29;20356;-68
2022/01/04 08:32:43;;;;;;;27.25;17.95;;;8.00;99.90;;;;;;4908520;29;20656;-69
2022/01/04 08:35:11;;;;;;;30.45;15.55;;;8.00;99.90;;;;;;4906690;29;20242;-68
2022/01/04 08:37:39;;;;;;;29.90;18.10;;;8.10;99.90;;;;;;4916822;29;20264;-69
2022/01/04 08:40:07;;;;;;;25.80;17.17;;;8.10;99.90;;;;;;4912559;29;20215;-70
2022/01/04 08:42:37;;;;;;;27.25;17.85;;;8.10;99.90;;;;;;4929873;29;20679;-69
2022/01/04 08:45:04;;;;;;;26.58;16.27;;;8.10;99.90;;;;;;4923167;29;20556;-70
2022/01/04 08:47:31;;;;;;;26.65;17.30;;;8.10;99.90;;;;;;4930609;29;20238;-68
2022/01/04 08:49:58;;;;;;;26.35;16.92;;;8.10;99.90;;;;;;4935849;29;20225;-68
2022/01/04 08:52:27;;;;;;;25.10;16.48;;;8.10;99.90;;;;;;4920408;29;20217;-70
2022/01/04 08:54:53;;;;;;;24.80;15.75;;;8.20;99.90;;;;;;4917216;29;20202;-69
2022/01/04 08:57:21;;;;;;;22.95;14.35;;;8.20;99.90;;;;;;4931390;29;20707;-70
2022/01/04 08:59:49;;;;;;;28.58;17.00;;;8.20;99.90;;;;;;4927626;29;20580;-69
2022/01/04 09:02:15;;;;;;;26.35;15.20;;;8.20;99.90;;;;;;4930944;29;20258;-69
2022/01/04 09:04:42;;;;;;;22.88;14.82;;;8.20;99.90;;;;;;4931093;29;20979;-68
2022/01/04 09:07:09;;;;;;;20.33;15.45;;;8.30;99.90;;;;;;4913459;29;20431;-68
2022/01/04 09:09:35;;;;;;;23.23;14.50;;;8.30;99.90;;;;;;4914961;29;20293;-70
2022/01/04 09:12:02;;;;;;;27.52;17.00;;;8.30;99.90;;;;;;4917468;29;20206;-68
2022/01/04 09:14:41;;;;;;;24.50;16.13;;;8.30;99.90;;;;;;4917210;29;20206;-67
2022/01/04 09:19:54;;;;;;;24.45;16.10;;;8.30;99.90;;;;;;4915987;29;20225;-68
2022/01/04 09:22:20;;;;;;;21.27;15.27;;;8.30;99.90;;;;;;4923282;29;20215;-67
2022/01/04 09:24:47;;;;;;;22.70;14.88;;;8.30;99.90;;;;;;4904387;29;20259;-67
2022/01/04 09:27:14;;;;;;;27.13;18.60;;;8.30;99.90;;;;;;4918885;29;20233;-69
2022/01/04 09:29:40;;;;;;;19.40;14.13;;;8.40;99.90;;;;;;4924626;29;20687;-67
2022/01/04 09:32:13;;;;;;;22.77;13.18;;;8.30;99.90;;;;;;4935810;29;20623;-69
2022/01/04 09:34:40;;;;;;;23.40;14.85;;;8.30;99.90;;;;;;4906022;29;20250;-67
2022/01/04 09:37:06;;;;;;;23.70;13.95;;;8.30;99.90;;;;;;4897478;29;20235;-67
2022/01/04 09:39:33;;;;;;;21.75;14.63;;;8.30;99.90;;;;;;4907524;29;20203;-67
2022/01/04 09:42:00;;;;;;;22.17;15.60;;;8.30;99.90;;;;;;4922595;29;20549;-71
2022/01/04 09:44:28;;;;;;;24.88;15.10;;;8.30;99.90;;;;;;4913347;29;20206;-68
2022/01/04 09:46:55;;;;;;;22.00;15.38;;;8.30;99.90;;;;;;4933566;29;20260;-70
2022/01/04 09:49:23;;;;;;;20.55;13.93;;;8.30;99.90;;;;;;4936099;29;20308;-69
2022/01/04 09:51:51;;;;;;;25.30;16.20;;;8.30;99.90;;;;;;4924841;29;20222;-69
2022/01/04 09:54:22;;;;;;;23.15;16.23;;;8.30;99.90;;;;;;4916564;29;20639;-69
2022/01/04 09:56:50;;;;;;;25.23;15.07;;;8.30;99.90;;;;;;4911900;29;20235;-70
2022/01/04 09:59:17;;;;;;;28.02;16.27;;;8.30;99.90;;;;;;4916293;29;20209;-70
2022/01/04 10:01:45;;;;;;;29.13;16.85;;;8.30;99.90;;;;;;4915870;29;20210;-70
2022/01/04 10:04:13;;;;;;;24.60;15.82;;;8.40;99.90;;;;;;4916286;29;20207;-69
2022/01/04 10:06:57;;;;;;;30.20;15.93;;;8.40;99.90;;;;;;4921761;29;20277;-69
2022/01/04 10:09:36;;;;;;;24.95;15.75;;;8.40;99.90;;;;;;4917127;29;20226;-68
2022/01/04 10:12:05;;;;;;;20.52;14.68;;;8.40;99.90;;;;;;4914812;29;20213;-68
2022/01/04 10:14:35;;;;;;;20.05;13.40;;;8.30;99.90;;;;;;4914018;29;20309;-68
2022/01/04 10:17:03;;;;;;;23.85;14.70;;;8.30;99.90;;;;;;4914432;29;20272;-69
2022/01/04 10:19:32;;;;;;;25.00;14.93;;;8.40;99.90;;;;;;4917027;29;20202;-68
2022/01/04 10:22:14;;;;;;;25.17;14.63;;;8.40;99.90;;;;;;4915120;29;20214;-69
2022/01/04 10:24:42;;;;;;;19.60;13.90;;;8.40;99.90;;;;;;4915546;29;20218;-68
2022/01/04 10:27:29;;;;;;;27.45;15.48;;;8.40;99.90;;;;;;4922990;29;20230;-68
2022/01/04 10:30:14;;;;;;;23.20;14.63;;;8.40;99.90;;;;;;4934025;29;20240;-69
2022/01/04 10:32:50;;;;;;;25.15;14.68;;;8.50;99.90;;;;;;4922788;29;20593;-68
2022/01/04 10:35:32;;;;;;;21.40;15.50;;;8.50;99.90;;;;;;4915407;29;20274;-68
2022/01/04 10:38:09;;;;;;;22.40;15.05;;;8.50;99.90;;;;;;4927619;29;20202;-68
2022/01/04 10:40:37;;;;;;;23.35;14.50;;;8.50;99.90;;;;;;4925424;29;20219;-69
2022/01/04 10:43:09;;;;;;;28.92;17.30;;;8.50;99.90;;;;;;4914742;29;20807;-68
2022/01/04 10:45:37;;;;;;;21.42;14.80;;;8.50;99.90;;;;;;4913461;29;20238;-71
2022/01/04 10:48:16;;;;;;;25.42;16.10;;;8.50;99.90;;;;;;4916361;29;20703;-68
2022/01/04 10:50:45;;;;;;;24.00;14.77;;;8.60;99.90;;;;;;4914768;29;20225;-69
2022/01/04 10:53:21;;;;;;;29.83;18.70;;;8.60;99.90;;;;;;4912141;29;20217;-69
2022/01/04 10:55:50;;;;;;;27.13;13.15;;;8.70;99.90;;;;;;4914975;29;20226;-70
2022/01/04 10:58:26;;;;;;;24.80;15.05;;;8.70;99.90;;;;;;4914125;29;20234;-71
2022/01/04 11:00:54;;;;;;;31.85;18.08;;;8.70;99.90;;;;;;4916521;29;20213;-69
2022/01/04 11:03:42;;;;;;;29.33;19.02;;;8.70;99.90;;;;;;4917127;29;20217;-69
2022/01/04 11:06:12;;;;;;;28.73;17.65;;;8.70;99.90;;;;;;4911185;29;20710;-72
2022/01/04 11:08:41;;;;;;;20.23;12.63;;;8.90;99.90;;;;;;4913826;29;20397;-69
2022/01/04 11:11:08;;;;;;;24.17;15.73;;;8.90;99.90;;;;;;4915526;29;20603;-67
2022/01/04 11:13:35;;;;;;;20.27;14.27;;;8.90;99.90;;;;;;4920263;29;20639;-72
2022/01/04 11:16:02;;;;;;;21.77;12.70;;;8.90;99.90;;;;;;4920704;29;20265;-68
2022/01/04 11:18:30;;;;;;;24.17;13.02;;;8.90;99.90;;;;;;4916327;29;20210;-70
2022/01/04 11:20:57;;;;;;;19.95;13.75;;;8.90;99.90;;;;;;4922579;29;20207;-73
2022/01/04 11:23:27;;;;;;;26.05;12.75;;;8.90;99.90;;;;;;4914266;29;20714;-69
2022/01/04 11:25:55;;;;;;;22.35;13.48;;;8.90;99.90;;;;;;4919042;29;20288;-69
2022/01/04 11:28:23;;;;;;;22.02;15.07;;;8.90;99.90;;;;;;4907584;29;20234;-67
2022/01/04 11:31:14;;;;;;;22.85;13.80;;;8.90;99.90;;;;;;4919139;29;20213;-70
2022/01/04 11:33:55;;;;;;;22.30;12.60;;;8.90;99.90;;;;;;4910478;29;20220;-72
2022/01/04 11:36:22;;;;;;;20.00;12.45;;;8.90;99.90;;;;;;4915020;29;20238;-68
2022/01/04 11:38:50;;;;;;;24.27;14.27;;;8.90;99.90;;;;;;4919080;29;20209;-72
2022/01/04 11:41:42;;;;;;;23.42;15.82;;;9.00;99.90;;;;;;4910711;29;20231;-68
2022/01/04 11:44:18;;;;;;;23.15;17.02;;;9.00;99.90;;;;;;4914205;29;20652;-69
2022/01/04 11:46:58;;;;;;;17.25;13.15;;;9.10;99.90;;;;;;4914632;29;20848;-68
2022/01/04 11:49:25;;;;;;;22.35;15.30;;;9.10;99.90;;;;;;4906919;29;20286;-67
2022/01/04 11:51:51;;;;;;;29.52;17.95;;;9.10;99.90;;;;;;4906784;29;20815;-71
2022/01/04 11:54:21;;;;;;;23.77;14.18;;;9.10;99.90;;;;;;4904710;29;20289;-68
2022/01/04 11:56:52;;;;;;;25.75;15.27;;;9.10;99.90;;;;;;4914053;29;20313;-70
2022/01/04 11:59:20;;;;;;;19.15;14.23;;;9.20;99.90;;;;;;4914369;29;20560;-68
2022/01/04 12:01:47;;;;;;;19.27;14.70;;;9.20;99.90;;;;;;4912298;29;20238;-69
2022/01/04 12:04:34;;;;;;;28.88;18.70;;;9.20;99.90;;;;;;4913634;29;20210;-73
2022/01/04 12:07:01;;;;;;;22.55;14.20;;;9.10;99.90;;;;;;4913313;29;20579;-69
2022/01/04 12:09:29;;;;;;;19.48;14.00;;;9.10;99.90;;;;;;4916018;29;20246;-68
2022/01/04 12:11:57;;;;;;;23.67;14.18;;;9.10;99.90;;;;;;4917539;29;20664;-70
2022/01/04 12:14:27;;;;;;;16.25;13.48;;;9.00;99.90;;;;;;4924858;29;20214;-72
2022/01/04 12:17:04;;;;;;;17.88;12.40;;;8.90;99.90;;;;;;4914386;29;20306;-72
2022/01/04 12:19:46;;;;;;;21.70;12.10;;;8.90;99.90;;;;;;4913548;29;20198;-76
2022/01/04 12:22:13;;;;;;;17.55;11.13;;;8.90;99.90;;;;;;4913136;29;20293;-67
2022/01/04 12:24:46;;;;;;;17.08;12.40;;;8.90;99.90;;;;;;4917512;29;20211;-68
2022/01/04 12:27:16;;;;;;;16.02;13.40;;;8.80;99.90;;;;;;4917129;29;20652;-69
2022/01/04 12:29:42;;;;;;;8.15;7.18;;;8.80;99.90;;;;;;4917211;29;20230;-70
2022/01/04 12:32:21;;;;;;;7.22;5.47;;;8.70;99.90;;;;;;4900537;29;20207;-67
2022/01/04 12:35:06;;;;;;;7.85;7.25;;;8.60;99.90;;;;;;4911199;29;20214;-69
2022/01/04 12:37:36;;;;;;;4.70;4.30;;;8.50;99.90;;;;;;4910256;29;20258;-70
2022/01/04 12:40:04;;;;;;;3.72;3.50;;;8.30;99.90;;;;;;4916977;29;20203;-69
2022/01/04 12:42:32;;;;;;;2.88;2.20;;;8.20;99.90;;;;;;4914186;29;20241;-68
2022/01/04 12:44:59;;;;;;;5.28;3.40;;;8.10;99.90;;;;;;4914176;29;20245;-69
2022/01/04 12:47:27;;;;;;;3.30;3.05;;;8.00;99.90;;;;;;4922273;29;20340;-68
2022/01/04 12:49:58;;;;;;;3.28;2.97;;;7.90;99.90;;;;;;4918690;29;20301;-69
2022/01/04 12:52:24;;;;;;;2.20;2.10;;;7.80;99.90;;;;;;4916444;29;20213;-70
2022/01/04 12:54:51;;;;;;;2.10;2.00;;;7.70;99.90;;;;;;4916212;29;20206;-70
2022/01/04 12:57:20;;;;;;;2.10;2.00;;;7.60;99.90;;;;;;4915007;29;20226;-68
2022/01/04 12:59:50;;;;;;;2.67;1.63;;;7.60;99.90;;;;;;4916830;29;20225;-66
2022/01/04 13:02:20;;;;;;;2.00;1.90;;;7.60;99.90;;;;;;4900788;29;20219;-68
2022/01/04 13:04:49;;;;;;;1.73;1.63;;;7.50;99.90;;;;;;4915511;29;20210;-69
2022/01/04 13:07:21;;;;;;;2.17;1.60;;;7.50;99.90;;;;;;4910836;29;20231;-69
2022/01/04 13:09:54;;;;;;;2.28;2.05;;;7.50;99.90;;;;;;4912984;29;20231;-69
2022/01/04 13:12:27;;;;;;;1.55;1.55;;;7.50;99.90;;;;;;4910631;29;20597;-67
2022/01/04 13:14:56;;;;;;;1.50;1.50;;;7.50;99.90;;;;;;4916206;29;20210;-69
2022/01/04 13:17:23;;;;;;;1.67;1.48;;;7.40;99.90;;;;;;4914246;29;20317;-68
2022/01/04 13:19:51;;;;;;;1.63;1.60;;;7.50;99.90;;;;;;4909890;29;20209;-69
2022/01/04 13:22:19;;;;;;;1.20;1.20;;;7.50;99.90;;;;;;4911715;29;20234;-67
2022/01/04 13:24:49;;;;;;;2.50;1.92;;;7.40;99.90;;;;;;4916629;29;20211;-69
2022/01/04 13:27:21;;;;;;;3.67;1.83;;;7.40;99.90;;;;;;4916447;29;20223;-70
2022/01/04 13:29:52;;;;;;;1.00;1.00;;;7.30;99.90;;;;;;4915723;29;20210;-70
2022/01/04 13:32:22;;;;;;;5.15;2.35;;;7.30;99.90;;;;;;4917263;29;20222;-69
2022/01/04 13:34:49;;;;;;;1.58;1.58;;;7.30;99.90;;;;;;4922550;29;20206;-69
2022/01/04 13:37:19;;;;;;;1.33;1.20;;;7.30;99.90;;;;;;4921955;29;20234;-69
2022/01/04 13:39:46;;;;;;;1.50;1.40;;;7.30;99.90;;;;;;4933257;29;20234;-71
2022/01/04 13:42:34;;;;;;;2.25;1.38;;;7.20;99.90;;;;;;4919671;29;20301;-70
2022/01/04 13:45:04;;;;;;;1.40;1.40;;;7.30;99.90;;;;;;4921593;29;20211;-70
2022/01/04 13:47:36;;;;;;;1.30;1.30;;;7.30;99.90;;;;;;4922048;29;20234;-70
2022/01/04 13:50:20;;;;;;;2.70;1.83;;;7.30;99.90;;;;;;4916104;29;20642;-71
2022/01/04 13:53:02;;;;;;;2.95;1.75;;;7.30;99.90;;;;;;4919360;29;20254;-71
2022/01/04 13:55:50;;;;;;;2.08;1.98;;;7.30;99.90;;;;;;4905223;29;20578;-72
2022/01/04 13:58:34;;;;;;;2.00;1.90;;;7.30;99.90;;;;;;4903459;29;20211;-69
2022/01/04 14:01:11;;;;;;;3.72;2.03;;;7.30;99.90;;;;;;4914011;29;20352;-69
2022/01/04 14:03:41;;;;;;;1.90;1.90;;;7.30;99.90;;;;;;4918669;29;20249;-70
2022/01/04 14:06:37;;;;;;;2.38;1.70;;;7.30;99.90;;;;;;4916902;29;20646;-70
2022/01/04 14:09:06;;;;;;;2.15;2.08;;;7.30;99.90;;;;;;4921775;29;20230;-68
2022/01/04 14:11:36;;;;;;;2.95;1.60;;;7.30;99.90;;;;;;4917609;29;20289;-69
2022/01/04 14:14:15;;;;;;;1.23;1.23;;;7.30;99.90;;;;;;4913517;29;20207;-69
2022/01/04 14:16:47;;;;;;;2.17;2.17;;;7.30;99.90;;;;;;4911599;29;20249;-69
2022/01/04 14:19:17;;;;;;;3.05;1.73;;;7.30;99.90;;;;;;4915567;29;20259;-67
2022/01/04 14:21:46;;;;;;;2.92;2.80;;;7.30;99.90;;;;;;4916517;29;20278;-69
2022/01/04 14:24:34;;;;;;;2.38;2.03;;;7.30;99.90;;;;;;4915653;29;20218;-68
2022/01/04 14:27:04;;;;;;;2.40;2.30;;;7.30;99.90;;;;;;4914728;29;20246;-68
2022/01/04 14:29:31;;;;;;;2.00;1.90;;;7.30;99.90;;;;;;4920242;29;20226;-72
2022/01/04 14:32:02;;;;;;;1.08;1.08;;;7.20;99.90;;;;;;4915064;29;20313;-69
2022/01/04 14:34:30;;;;;;;1.15;1.15;;;7.20;99.90;;;;;;4915577;29;20202;-68
2022/01/04 14:36:58;;;;;;;1.45;1.45;;;7.00;99.90;;;;;;4915244;29;20310;-68
2022/01/04 14:39:25;;;;;;;1.75;1.65;;;6.80;99.90;;;;;;4921141;29;20631;-70
2022/01/04 14:41:52;;;;;;;2.60;2.40;;;6.70;99.90;;;;;;4933992;29;20737;-70
2022/01/04 14:44:18;;;;;;;3.95;3.13;;;6.70;99.90;;;;;;4934971;29;20214;-70
2022/01/04 14:46:45;;;;;;;3.70;3.13;;;6.60;99.90;;;;;;4926721;29;20591;-70
2022/01/04 14:49:12;;;;;;;3.38;2.78;;;6.50;99.90;;;;;;4927263;29;20230;-71
2022/01/04 14:51:40;;;;;;;4.57;3.10;;;6.40;99.90;;;;;;4917905;29;20621;-71
2022/01/04 14:54:07;;;;;;;3.17;3.08;;;6.40;99.90;;;;;;4912403;29;20222;-71
2022/01/04 14:56:33;;;;;;;2.50;2.30;;;6.30;99.90;;;;;;4915439;29;20237;-72
2022/01/04 14:59:03;;;;;;;2.38;2.28;;;6.30;99.90;;;;;;4925459;29;20347;-71
2022/01/04 15:01:30;;;;;;;3.85;2.35;;;6.30;99.90;;;;;;4933862;29;20312;-71
2022/01/04 15:03:57;;;;;;;3.15;2.95;;;6.20;99.90;;;;;;4934153;29;20241;-71
2022/01/04 15:06:24;;;;;;;3.35;3.05;;;6.10;99.90;;;;;;4914337;29;20274;-72
2022/01/04 15:08:52;;;;;;;5.18;4.72;;;6.10;99.90;;;;;;4923482;29;20213;-72
2022/01/04 15:11:19;;;;;;;4.03;3.92;;;6.00;99.90;;;;;;4933427;29;20237;-72
2022/01/04 15:13:46;;;;;;;4.25;3.95;;;6.00;99.90;;;;;;4914266;29;20211;-72
2022/01/04 15:16:13;;;;;;;3.00;2.80;;;5.90;99.90;;;;;;4918260;29;20308;-72
2022/01/04 15:18:42;;;;;;;2.67;2.47;;;5.90;99.90;;;;;;4924250;29;20631;-72
2022/01/04 15:21:09;;;;;;;3.45;3.15;;;5.90;99.90;;;;;;4912589;29;20213;-72
2022/01/04 15:23:35;;;;;;;3.85;3.55;;;5.90;99.90;;;;;;4912204;29;20214;-71
2022/01/04 15:26:03;;;;;;;3.53;3.33;;;5.80;99.90;;;;;;4912719;29;20238;-71
2022/01/04 15:28:30;;;;;;;3.15;2.88;;;5.80;99.90;;;;;;4916118;29;20620;-72
2022/01/04 15:30:57;;;;;;;3.92;3.70;;;5.80;99.90;;;;;;4911731;29;20230;-72
2022/01/04 15:33:24;;;;;;;4.25;3.92;;;5.80;99.90;;;;;;4912050;29;20784;-72
2022/01/04 15:35:51;;;;;;;4.22;3.83;;;5.80;99.90;;;;;;4914801;29;20313;-72
2022/01/04 15:38:18;;;;;;;5.13;4.63;;;5.80;99.90;;;;;;4917583;29;20206;-72
2022/01/04 15:40:45;;;;;;;6.75;5.65;;;5.80;99.90;;;;;;4922003;29;20207;-72
2022/01/04 15:43:13;;;;;;;7.07;5.40;;;5.80;99.90;;;;;;4911153;29;20199;-71
2022/01/04 15:45:40;;;;;;;7.00;5.25;;;5.70;99.90;;;;;;4915055;29;20719;-71
2022/01/04 15:48:07;;;;;;;7.20;5.95;;;5.80;99.90;;;;;;4916928;29;20217;-71
2022/01/04 15:50:34;;;;;;;6.30;5.70;;;5.80;99.90;;;;;;4930464;29;20322;-71
2022/01/04 15:53:01;;;;;;;5.18;4.60;;;5.70;99.90;;;;;;4926450;29;20202;-71
2022/01/04 15:55:28;;;;;;;8.52;5.90;;;5.70;99.90;;;;;;4914913;29;20789;-70
2022/01/04 15:57:55;;;;;;;6.15;4.63;;;5.70;99.90;;;;;;4927775;29;20214;-71
2022/01/04 16:00:24;;;;;;;5.70;4.70;;;5.70;99.90;;;;;;4917364;29;20214;-71
2022/01/04 16:02:52;;;;;;;10.23;5.40;;;5.80;99.90;;;;;;4895110;29;20677;-71
2022/01/04 16:05:19;;;;;;;6.20;5.13;;;5.80;99.90;;;;;;4892132;29;20677;-71
2022/01/04 16:07:46;;;;;;;6.00;4.53;;;5.80;99.90;;;;;;4908586;29;20203;-72
2022/01/04 16:10:12;;;;;;;8.10;6.18;;;5.70;99.90;;;;;;4910678;29;20218;-71
2022/01/04 16:12:39;;;;;;;7.88;6.25;;;5.70;99.90;;;;;;4912977;29;20317;-70
2022/01/04 16:15:12;;;;;;;9.75;6.43;;;5.70;99.90;;;;;;4903808;29;20211;-70
2022/01/04 16:17:46;;;;;;;10.55;6.40;;;5.70;99.90;;;;;;4910387;29;20245;-70
2022/01/04 16:22:59;;;;;;;7.85;4.93;;;5.70;99.90;;;;;;4904368;29;20213;-70
2022/01/04 16:25:27;;;;;;;5.60;4.18;;;5.60;99.90;;;;;;4914638;29;20549;-70
2022/01/04 16:27:54;;;;;;;8.57;6.15;;;5.60;99.90;;;;;;4918199;29;20218;-70
2022/01/04 16:30:21;;;;;;;7.82;4.57;;;5.60;99.90;;;;;;4913289;29;20226;-70
2022/01/04 16:32:49;;;;;;;6.05;5.25;;;5.60;99.90;;;;;;4893916;29;20222;-70
2022/01/04 16:35:17;;;;;;;6.22;4.45;;;5.60;99.90;;;;;;4908389;29;20215;-69
2022/01/04 16:37:44;;;;;;;5.68;4.40;;;5.60;99.90;;;;;;4892537;29;20865;-70
2022/01/04 16:40:13;;;;;;;6.80;4.57;;;5.60;99.90;;;;;;4900885;29;20218;-70
2022/01/04 16:42:41;;;;;;;4.63;4.00;;;5.60;99.90;;;;;;4927128;29;20214;-70
2022/01/04 16:45:09;;;;;;;5.68;4.25;;;5.50;99.90;;;;;;4929792;29;20229;-70
2022/01/04 16:47:38;;;;;;;4.18;3.80;;;5.50;99.90;;;;;;4906514;29;20297;-69
2022/01/04 16:50:08;;;;;;;8.25;6.00;;;5.50;99.90;;;;;;4914773;29;20230;-69
2022/01/04 16:52:35;;;;;;;5.80;4.53;;;5.50;99.90;;;;;;4911162;29;20222;-69
2022/01/04 16:55:03;;;;;;;5.57;4.80;;;5.50;99.90;;;;;;4903047;29;20246;-70
2022/01/04 16:57:31;;;;;;;2.92;2.80;;;5.50;99.90;;;;;;4926739;29;20579;-70
2022/01/04 16:59:57;;;;;;;3.88;3.58;;;5.50;99.90;;;;;;4920354;29;20199;-69
2022/01/04 17:02:24;;;;;;;6.15;2.67;;;5.50;99.90;;;;;;4914476;29;20225;-69
2022/01/04 17:04:52;;;;;;;5.90;4.07;;;5.50;99.90;;;;;;4899344;29;20234;-69
2022/01/04 17:07:20;;;;;;;4.15;2.95;;;5.50;99.90;;;;;;4916974;29;20229;-70
2022/01/04 17:09:50;;;;;;;4.88;4.45;;;5.50;99.90;;;;;;4919572;29;20624;-70
2022/01/04 17:12:35;;;;;;;3.85;3.53;;;5.40;99.90;;;;;;4932411;29;20234;-69
2022/01/04 17:17:47;;;;;;;2.35;2.30;;;5.50;99.90;;;;;;4914475;29;20699;-70
2022/01/04 17:20:14;;;;;;;2.10;2.10;;;5.50;99.90;;;;;;4909353;29;20215;-70
2022/01/04 17:22:44;;;;;;;3.78;2.55;;;5.50;99.90;;;;;;4918202;29;20616;-70
2022/01/04 17:25:13;;;;;;;5.20;4.70;;;5.50;99.90;;;;;;4923147;29;20205;-70
2022/01/04 17:27:41;;;;;;;5.60;4.47;;;5.50;99.90;;;;;;4932909;29;20238;-70
2022/01/04 17:30:11;;;;;;;4.75;4.35;;;5.50;99.90;;;;;;4916570;29;20238;-70
2022/01/04 17:32:38;;;;;;;5.78;4.18;;;5.50;99.90;;;;;;4914581;29;20222;-69
2022/01/04 17:35:05;;;;;;;3.65;2.85;;;5.40;99.90;;;;;;4915185;29;20206;-70
2022/01/04 17:37:33;;;;;;;1.77;1.67;;;5.50;99.90;;;;;;4912860;29;20234;-71
2022/01/04 17:40:01;;;;;;;2.67;2.30;;;5.40;99.90;;;;;;4904102;29;20218;-71
2022/01/04 17:42:28;;;;;;;2.10;2.10;;;5.40;99.90;;;;;;4912168;29;20221;-70
2022/01/04 17:44:55;;;;;;;2.58;2.53;;;5.40;99.90;;;;;;4915315;29;20301;-70
2022/01/04 17:47:23;;;;;;;3.05;2.10;;;5.40;99.90;;;;;;4916530;29;20251;-70
2022/01/04 17:49:50;;;;;;;3.38;3.13;;;5.40;99.90;;;;;;4922608;29;20672;-70
2022/01/04 17:52:17;;;;;;;3.00;2.85;;;5.40;99.90;;;;;;4924175;29;20363;-70
2022/01/04 17:54:45;;;;;;;6.60;3.67;;;5.40;99.90;;;;;;4902154;29;20207;-68
2022/01/04 17:57:13;;;;;;;3.50;3.30;;;5.30;99.90;;;;;;4918633;29;20250;-68
2022/01/04 17:59:43;;;;;;;2.55;2.50;;;5.30;99.90;;;;;;4921295;29;20254;-68
2022/01/04 18:02:10;;;;;;;3.22;2.85;;;5.30;99.90;;;;;;4934856;29;20254;-68
2022/01/04 18:04:37;;;;;;;3.83;2.40;;;5.20;99.90;;;;;;4930954;29;20210;-71
2022/01/04 18:07:04;;;;;;;2.95;2.75;;;5.20;99.90;;;;;;4918795;29;20218;-68